Terminal Aerodrome Forecast
Issued by NWS

Home | Current Version | Previous Version | Text Only | Print | Product List | Glossary On
Versions: 1 2 3 4 5 6 7 8 9 10 11 12 13 14 15 16 17 18 19 20 21 22 23 24 25 26 27 28 29 30 31 32 33 34 35 36 37 38 39 40 41 42 43 44 45 46 47 48 49 50
000
FTUS41 KCTP 241739
TAFBFD
TAF
KBFD 241739Z 2418/2518 21011G20KT P6SM SCT040
     FM250000 18008KT P6SM BKN050
     FM251000 17009G16KT P6SM VCSH OVC025
     FM251200 19010G20KT 4SM -SHRA BR OVC025
      TEMPO 2513/2515 23015G30KT 2SM -TSRA OVC012CB
     FM251500 25014G30KT 6SM -SHRA OVC010=

USA.gov is the U.S. government's official web portal to all federal, state and local government web resources and services.